createdAt,value
2019-05-22T00:01:29.105Z,5.23
2019-05-22T00:04:15.526Z,5.60
2019-05-22T00:06:50.180Z,6.00
2019-05-22T00:09:24.812Z,5.87
2019-05-22T00:11:56.784Z,5.73
2019-05-22T00:14:28.714Z,5.93
2019-05-22T00:17:02.919Z,6.00
2019-05-22T00:19:35.019Z,5.90
2019-05-22T00:22:13.827Z,6.40
2019-05-22T00:24:47.025Z,6.20
2019-05-22T00:27:20.664Z,6.75
2019-05-22T00:29:56.034Z,6.10
2019-05-22T00:32:29.264Z,6.23
2019-05-22T00:35:01.380Z,6.93
2019-05-22T00:37:37.166Z,6.27
2019-05-22T00:40:09.937Z,6.60
2019-05-22T00:42:45.378Z,6.60
2019-05-22T00:45:20.069Z,6.78
2019-05-22T00:47:52.288Z,6.53
2019-05-22T00:50:29.899Z,7.27
2019-05-22T00:53:23.455Z,7.70
2019-05-22T00:56:02.092Z,8.07
2019-05-22T00:58:36.039Z,8.07
2019-05-22T01:01:45.294Z,8.20
2019-05-22T01:04:20.446Z,9.05
2019-05-22T01:06:54.997Z,9.00
2019-05-22T01:09:32.912Z,9.20
2019-05-22T01:12:07.078Z,9.47
2019-05-22T01:14:42.985Z,9.83
2019-05-22T01:17:14.965Z,9.35
2019-05-22T01:19:49.041Z,9.77
2019-05-22T01:22:23.314Z,11.18
2019-05-22T01:24:56.934Z,10.57
2019-05-22T01:27:30.135Z,10.70
2019-05-22T01:30:03.814Z,11.97
2019-05-22T01:32:45.501Z,5.47
2019-05-22T01:35:19.801Z,6.47
2019-05-22T01:37:52.746Z,7.70
2019-05-22T01:40:41.571Z,7.93
2019-05-22T01:43:17.578Z,9.10
2019-05-22T01:45:55.380Z,8.13
2019-05-22T01:48:33.412Z,8.40
2019-05-22T01:51:07.258Z,5.80
2019-05-22T01:53:42.233Z,7.50
2019-05-22T01:56:16.220Z,6.40
2019-05-22T01:58:50.022Z,6.40
2019-05-22T02:01:24.235Z,6.90
2019-05-22T02:04:00.025Z,7.67
2019-05-22T02:06:34.363Z,8.50
2019-05-22T02:09:24.569Z,9.63
2019-05-22T02:12:02.708Z,9.77
2019-05-22T02:14:35.547Z,9.90
2019-05-22T02:17:09.739Z,10.40
2019-05-22T02:19:42.064Z,8.83
2019-05-22T02:22:15.231Z,8.63
2019-05-22T02:24:51.909Z,8.37
2019-05-22T02:27:26.384Z,8.83
2019-05-22T02:29:59.060Z,8.10
2019-05-22T02:32:34.234Z,8.40
2019-05-22T02:35:08.518Z,8.13
2019-05-22T02:37:42.262Z,7.43
2019-05-22T02:40:25.949Z,7.95
2019-05-22T02:42:59.145Z,7.50
2019-05-22T02:45:32.293Z,8.53
2019-05-22T02:48:05.977Z,8.47
2019-05-22T02:50:39.373Z,9.33
2019-05-22T02:53:13.871Z,8.33
2019-05-22T02:55:47.627Z,8.03
2019-05-22T02:58:20.250Z,7.17
2019-05-22T03:01:01.539Z,8.50
2019-05-22T03:03:34.840Z,8.50
2019-05-22T03:06:12.333Z,8.73
2019-05-22T03:09:24.645Z,9.40
2019-05-22T03:12:01.451Z,8.90
2019-05-22T03:14:35.094Z,8.80
2019-05-22T03:17:13.096Z,9.35
2019-05-22T03:19:46.021Z,8.60
2019-05-22T03:22:31.498Z,9.77
2019-05-22T03:25:09.216Z,10.20
2019-05-22T03:27:44.132Z,8.50
2019-05-22T03:30:31.349Z,8.60
2019-05-22T03:33:04.245Z,8.40
2019-05-22T03:35:46.230Z,8.40
2019-05-22T03:38:20.240Z,8.33
2019-05-22T03:40:53.436Z,8.57
2019-05-22T03:43:28.381Z,8.27
2019-05-22T03:46:02.925Z,8.60
2019-05-22T03:48:37.881Z,9.00
2019-05-22T03:51:13.444Z,8.90
2019-05-22T03:53:48.634Z,8.93
2019-05-22T03:56:22.778Z,8.10
2019-05-22T03:58:55.369Z,8.27
2019-05-22T04:01:26.882Z,8.17
2019-05-22T04:03:59.586Z,9.03
2019-05-22T04:06:33.544Z,7.73
2019-05-22T04:09:19.386Z,7.90
2019-05-22T04:11:52.692Z,8.00
2019-05-22T04:14:34.920Z,8.10
2019-05-22T04:17:10.283Z,8.40
2019-05-22T04:19:49.926Z,8.93
2019-05-22T04:22:19.176Z,10.05
2019-05-22T04:24:51.087Z,9.87
2019-05-22T04:27:23.195Z,10.43
2019-05-22T04:29:57.055Z,9.93
2019-05-22T04:32:37.467Z,9.97
2019-05-22T04:35:13.184Z,10.32
2019-05-22T04:37:46.989Z,9.57
2019-05-22T04:40:58.165Z,8.78
2019-05-22T04:43:34.122Z,9.13
2019-05-22T04:46:08.342Z,9.50
2019-05-22T04:48:40.069Z,9.70
2019-05-22T04:51:32.059Z,10.25
2019-05-22T04:54:03.701Z,9.77
2019-05-22T04:56:36.923Z,10.00
2019-05-22T04:59:09.236Z,9.77
2019-05-22T05:01:41.323Z,9.77
2019-05-22T05:04:14.134Z,11.33
2019-05-22T05:06:46.786Z,10.90
2019-05-22T05:09:18.996Z,11.47
2019-05-22T05:11:51.359Z,11.00
2019-05-22T05:14:23.117Z,10.45
2019-05-22T05:16:55.041Z,10.37
2019-05-22T05:19:26.951Z,10.23
2019-05-22T05:21:58.690Z,9.17
2019-05-22T05:24:30.713Z,11.33
2019-05-22T05:27:03.155Z,10.50
2019-05-22T05:29:35.393Z,10.03
2019-05-22T05:32:08.568Z,10.33
2019-05-22T05:34:49.306Z,10.03
2019-05-22T05:37:24.220Z,10.23
2019-05-22T05:40:42.291Z,10.70
2019-05-22T05:43:17.232Z,10.47
2019-05-22T05:45:50.555Z,9.85
2019-05-22T05:48:26.001Z,10.17
2019-05-22T05:51:40.441Z,10.50
2019-05-22T05:54:18.391Z,10.53
2019-05-22T05:56:52.953Z,10.53
2019-05-22T05:59:27.760Z,10.23
2019-05-22T06:02:00.151Z,9.97
2019-05-22T06:04:37.872Z,10.43
2019-05-22T06:07:34.920Z,11.20
2019-05-22T06:10:44.923Z,10.50
2019-05-22T06:13:17.563Z,10.35
2019-05-22T06:16:46.267Z,9.53
2019-05-22T06:19:19.789Z,14.53
2019-05-22T06:21:52.658Z,11.67
2019-05-22T06:24:28.140Z,11.37
2019-05-22T06:27:09.065Z,10.90
2019-05-22T06:29:59.392Z,10.53
2019-05-22T06:33:07.938Z,11.75
2019-05-22T06:35:40.701Z,11.00
2019-05-22T06:38:24.337Z,11.80
2019-05-22T06:40:56.599Z,11.30
2019-05-22T06:44:43.416Z,11.70
2019-05-22T06:47:22.054Z,11.03
2019-05-22T06:49:57.290Z,10.80
2019-05-22T06:52:29.094Z,12.20
2019-05-22T06:55:00.932Z,11.87
2019-05-22T06:57:33.527Z,10.90
2019-05-22T07:00:25.162Z,9.70
2019-05-22T07:02:56.806Z,10.27
2019-05-22T07:05:30.023Z,10.93
2019-05-22T07:08:03.512Z,10.70
2019-05-22T07:10:36.414Z,11.33
2019-05-22T07:13:10.549Z,10.67
2019-05-22T07:15:46.166Z,10.20
2019-05-22T07:18:22.737Z,11.38
2019-05-22T07:20:57.012Z,21.53
2019-05-22T07:23:32.060Z,19.03
2019-05-22T07:26:06.212Z,9.07
2019-05-22T07:28:38.972Z,9.10
2019-05-22T07:31:11.671Z,9.47
2019-05-22T07:33:43.721Z,9.63
2019-05-22T07:36:17.921Z,9.20
2019-05-22T07:38:49.573Z,8.17
2019-05-22T07:41:22.049Z,7.42
2019-05-22T07:43:54.311Z,7.60
2019-05-22T07:46:30.839Z,8.03
2019-05-22T07:49:01.618Z,7.73
2019-05-22T07:51:48.468Z,8.90
2019-05-22T07:54:08.208Z,6.93
2019-05-22T07:56:40.463Z,7.13
2019-05-22T07:59:12.467Z,7.72
2019-05-22T08:01:44.609Z,7.00
2019-05-22T08:04:19.238Z,7.25
2019-05-22T08:06:51.125Z,7.23
2019-05-22T08:09:24.717Z,7.70
2019-05-22T08:11:58.419Z,7.77
2019-05-22T08:14:32.611Z,7.70
2019-05-22T08:17:06.161Z,7.53
2019-05-22T08:19:38.168Z,6.50
2019-05-22T08:22:10.525Z,6.05
2019-05-22T08:24:43.286Z,7.33
2019-05-22T08:27:16.706Z,7.47
2019-05-22T08:29:48.927Z,6.27
2019-05-22T08:32:23.176Z,6.77
2019-05-22T08:34:55.543Z,7.10
2019-05-22T08:37:31.463Z,7.00
2019-05-22T08:40:04.625Z,7.80
2019-05-22T08:42:37.923Z,7.10
2019-05-22T08:45:10.522Z,7.47
2019-05-22T08:47:42.688Z,7.27
2019-05-22T08:50:16.738Z,8.13
2019-05-22T08:52:50.083Z,7.97
2019-05-22T08:55:22.901Z,7.27
2019-05-22T08:57:54.837Z,6.80
2019-05-22T09:00:28.856Z,8.27
2019-05-22T09:03:02.019Z,7.80
2019-05-22T09:05:34.361Z,6.83
2019-05-22T09:08:06.336Z,6.30
2019-05-22T09:10:38.153Z,6.17
2019-05-22T09:13:10.107Z,6.83
2019-05-22T09:15:43.421Z,6.10
2019-05-22T09:18:15.893Z,6.65
2019-05-22T09:20:49.813Z,6.50
2019-05-22T09:23:22.530Z,6.40
2019-05-22T09:25:55.249Z,6.47
2019-05-22T09:28:27.250Z,6.80
2019-05-22T09:30:59.746Z,6.33
2019-05-22T09:33:32.429Z,6.47
2019-05-22T09:36:04.764Z,6.23
2019-05-22T09:38:36.963Z,6.30
2019-05-22T09:41:09.095Z,6.50
2019-05-22T09:43:41.834Z,6.40
2019-05-22T09:46:13.862Z,6.57
2019-05-22T09:48:46.187Z,7.97
2019-05-22T09:51:18.473Z,6.60
2019-05-22T09:53:53.993Z,5.97
2019-05-22T09:56:26.273Z,5.97
2019-05-22T09:58:58.066Z,6.83
2019-05-22T10:01:30.018Z,6.83
2019-05-22T10:04:02.710Z,5.97
2019-05-22T10:06:34.704Z,6.23
2019-05-22T10:09:09.009Z,5.70
2019-05-22T10:11:41.125Z,5.60
2019-05-22T10:14:13.263Z,6.77
2019-05-22T10:16:46.355Z,6.70
2019-05-22T10:19:18.008Z,6.45
2019-05-22T10:21:50.991Z,6.47
2019-05-22T10:24:23.137Z,6.23
2019-05-22T10:26:55.681Z,6.40
2019-05-22T10:29:31.530Z,7.23
2019-05-22T10:32:01.240Z,6.33
2019-05-22T10:34:33.810Z,6.03
2019-05-22T10:37:08.805Z,6.70
2019-05-22T10:39:41.605Z,5.90
2019-05-22T10:42:14.081Z,5.55
2019-05-22T10:44:46.181Z,5.90
2019-05-22T10:47:19.185Z,6.22
2019-05-22T10:49:51.795Z,6.40
2019-05-22T10:52:24.126Z,9.55
2019-05-22T10:54:56.202Z,6.93
2019-05-22T10:57:29.003Z,7.30
2019-05-22T11:00:01.193Z,7.03
2019-05-22T11:02:33.528Z,7.57
2019-05-22T11:05:10.001Z,6.50
2019-05-22T11:07:43.640Z,7.13
2019-05-22T11:10:17.069Z,7.08
2019-05-22T11:12:48.826Z,6.80
2019-05-22T11:15:21.996Z,6.40
2019-05-22T11:17:54.482Z,6.67
2019-05-22T11:20:26.477Z,6.67
2019-05-22T11:22:59.874Z,4.90
2019-05-22T11:25:32.401Z,4.77
2019-05-22T11:28:04.354Z,5.10
2019-05-22T11:30:36.776Z,5.27
2019-05-22T11:33:09.387Z,5.27
2019-05-22T11:35:41.807Z,5.63
2019-05-22T11:38:14.421Z,5.10
2019-05-22T11:40:47.076Z,5.40
2019-05-22T11:43:19.223Z,5.27
2019-05-22T11:45:51.515Z,4.90
2019-05-22T11:48:23.930Z,6.00
2019-05-22T11:51:00.900Z,5.10
2019-05-22T11:53:31.182Z,6.10
2019-05-22T11:56:03.643Z,6.27
2019-05-22T11:58:36.631Z,6.03
2019-05-22T12:01:08.736Z,5.93
2019-05-22T12:03:42.594Z,6.77
2019-05-22T12:06:16.636Z,7.40
2019-05-22T12:08:50.267Z,7.40
2019-05-22T12:11:22.751Z,8.80
2019-05-22T12:13:55.497Z,9.03
2019-05-22T12:16:28.671Z,10.33
2019-05-22T12:19:00.944Z,10.00
2019-05-22T12:21:32.696Z,9.27
2019-05-22T12:24:04.620Z,6.87
2019-05-22T12:26:37.462Z,7.20
2019-05-22T12:29:09.211Z,7.10
2019-05-22T12:31:41.321Z,7.57
2019-05-22T12:34:13.204Z,7.05
2019-05-22T12:36:45.298Z,8.03
2019-05-22T12:39:18.270Z,9.28
2019-05-22T12:41:50.781Z,11.07
2019-05-22T12:44:22.899Z,8.63
2019-05-22T12:46:54.908Z,8.07
2019-05-22T12:49:29.107Z,7.57
2019-05-22T12:52:01.946Z,8.23
2019-05-22T12:54:45.762Z,6.80
2019-05-22T12:57:07.079Z,6.00
2019-05-22T12:59:39.081Z,7.30
2019-05-22T13:02:11.176Z,7.40
2019-05-22T13:04:43.656Z,8.30
2019-05-22T13:07:16.534Z,7.60
2019-05-22T13:09:48.323Z,7.83
2019-05-22T13:12:20.303Z,8.40
2019-05-22T13:15:08.275Z,9.80
2019-05-22T13:17:28.583Z,10.03
2019-05-22T13:20:03.137Z,10.80
2019-05-22T13:22:38.102Z,8.67
2019-05-22T13:25:12.322Z,9.48
2019-05-22T13:27:45.098Z,11.03
2019-05-22T13:30:19.824Z,10.75
2019-05-22T13:32:52.922Z,12.40
2019-05-22T13:35:25.609Z,10.13
2019-05-22T13:37:58.054Z,5.40
2019-05-22T13:40:30.358Z,5.87
2019-05-22T13:43:04.358Z,6.87
2019-05-22T13:45:36.744Z,7.70
2019-05-22T13:48:09.329Z,8.40
2019-05-22T13:50:41.706Z,8.77
2019-05-22T13:53:15.938Z,13.00
2019-05-22T13:55:48.481Z,11.27
2019-05-22T13:58:21.746Z,11.25
2019-05-22T14:00:53.914Z,12.80
2019-05-22T14:03:26.552Z,9.93
2019-05-22T14:05:58.962Z,10.97
2019-05-22T14:08:30.777Z,9.53
2019-05-22T14:11:03.054Z,10.10
2019-05-22T14:13:35.693Z,9.83
2019-05-22T14:16:07.873Z,9.83
2019-05-22T14:18:39.664Z,10.20
2019-05-22T14:21:11.653Z,9.65
2019-05-22T14:23:43.897Z,9.70
2019-05-22T14:26:16.572Z,8.93
2019-05-22T14:28:49.964Z,9.40
2019-05-22T14:31:22.407Z,9.45
2019-05-22T14:33:54.716Z,9.23
2019-05-22T14:36:27.495Z,9.57
2019-05-22T14:38:59.458Z,9.40
2019-05-22T14:41:31.617Z,9.93
2019-05-22T14:44:03.854Z,11.13
2019-05-22T14:46:35.577Z,12.00
2019-05-22T14:49:07.441Z,11.80
2019-05-22T14:51:40.761Z,11.63
2019-05-22T14:54:12.728Z,11.50
2019-05-22T14:56:46.316Z,11.17
2019-05-22T14:59:19.888Z,12.53
2019-05-22T15:01:52.204Z,12.00
2019-05-22T15:04:25.520Z,13.30
2019-05-22T15:06:57.647Z,13.73
2019-05-22T15:09:30.141Z,14.57
2019-05-22T15:12:02.999Z,15.80
2019-05-22T15:14:34.751Z,15.97
2019-05-22T15:17:07.033Z,16.80
2019-05-22T15:19:38.836Z,17.33
2019-05-22T15:22:10.951Z,15.77
2019-05-22T15:24:42.960Z,15.83
2019-05-22T15:27:16.618Z,14.63
2019-05-22T15:29:48.578Z,13.87
2019-05-22T15:32:20.845Z,13.53
2019-05-22T15:34:52.890Z,11.37
2019-05-22T15:37:27.157Z,13.73
2019-05-22T15:39:59.651Z,13.07
2019-05-22T15:42:38.443Z,15.10
2019-05-22T15:45:14.539Z,13.53
2019-05-22T15:47:55.356Z,12.60
2019-05-22T15:50:26.669Z,13.70
2019-05-22T15:53:01.492Z,13.17
2019-05-22T15:55:35.456Z,11.57
2019-05-22T15:58:08.356Z,9.90
2019-05-22T16:00:42.941Z,8.67
2019-05-22T16:03:16.866Z,9.13
2019-05-22T16:05:49.257Z,9.00
2019-05-22T16:08:20.962Z,8.80
2019-05-22T16:10:53.025Z,8.20
2019-05-22T16:13:27.037Z,8.18
2019-05-22T16:15:59.861Z,6.73
2019-05-22T16:18:34.791Z,6.57
2019-05-22T16:21:10.328Z,7.57
2019-05-22T16:23:43.187Z,6.60
2019-05-22T16:26:16.503Z,6.15
2019-05-22T16:28:50.240Z,6.50
2019-05-22T16:31:22.430Z,6.17
2019-05-22T16:33:54.406Z,6.50
2019-05-22T16:36:27.063Z,7.20
2019-05-22T16:39:00.692Z,6.50
2019-05-22T16:41:36.672Z,6.50
2019-05-22T16:44:09.535Z,5.97
2019-05-22T16:46:42.926Z,5.60
2019-05-22T16:49:15.112Z,5.67
2019-05-22T16:51:51.073Z,6.40
2019-05-22T16:54:23.914Z,7.00
2019-05-22T16:56:56.326Z,6.37
2019-05-22T16:59:30.544Z,6.47
2019-05-22T17:02:03.099Z,7.17
2019-05-22T17:04:34.866Z,7.63
2019-05-22T17:07:08.442Z,7.73
2019-05-22T17:09:43.271Z,7.67
2019-05-22T17:12:17.004Z,9.00
2019-05-22T17:14:51.334Z,8.70
2019-05-22T17:17:23.386Z,9.40
2019-05-22T17:19:55.274Z,9.60
2019-05-22T17:22:28.458Z,8.90
2019-05-22T17:25:00.007Z,10.87
2019-05-22T17:27:32.235Z,13.00
2019-05-22T17:30:06.476Z,13.45
2019-05-22T17:32:38.569Z,13.37
2019-05-22T17:35:12.115Z,14.63
2019-05-22T17:37:46.140Z,15.53
2019-05-22T17:40:20.483Z,16.57
2019-05-22T17:42:54.356Z,16.50
2019-05-22T17:45:28.414Z,16.90
2019-05-22T17:48:03.294Z,18.20
2019-05-22T17:50:35.330Z,19.83
2019-05-22T17:53:07.664Z,19.80
2019-05-22T17:55:40.417Z,20.00
2019-05-22T17:58:13.027Z,21.47
2019-05-22T18:00:47.473Z,21.47
2019-05-22T18:03:19.472Z,23.07
2019-05-22T18:05:51.971Z,22.80
2019-05-22T18:08:24.093Z,23.73
2019-05-22T18:10:56.373Z,24.10
2019-05-22T18:13:28.761Z,23.43
2019-05-22T18:16:04.479Z,21.63
2019-05-22T18:18:34.915Z,20.33
2019-05-22T18:21:10.386Z,20.03
2019-05-22T18:23:40.426Z,20.77
2019-05-22T18:26:12.229Z,20.10
2019-05-22T18:28:46.681Z,20.73
2019-05-22T18:31:19.477Z,21.23
2019-05-22T18:33:52.050Z,19.07
2019-05-22T18:36:23.880Z,19.50
2019-05-22T18:38:56.181Z,20.03
2019-05-22T18:41:29.011Z,18.57
2019-05-22T18:44:01.794Z,17.70
2019-05-22T18:46:33.762Z,17.30
2019-05-22T18:49:05.833Z,15.20
2019-05-22T18:51:38.100Z,14.30
2019-05-22T18:54:09.834Z,11.73
2019-05-22T18:56:43.063Z,10.37
2019-05-22T18:59:14.844Z,8.90
2019-05-22T19:01:46.620Z,9.47
2019-05-22T19:04:18.302Z,8.00
2019-05-22T19:06:51.402Z,8.13
2019-05-22T19:09:23.820Z,9.00
2019-05-22T19:11:55.765Z,9.17
2019-05-22T19:14:28.075Z,8.83
2019-05-22T19:16:59.800Z,9.33
2019-05-22T19:19:31.748Z,8.47
2019-05-22T19:22:03.675Z,8.17
2019-05-22T19:24:35.463Z,7.80
2019-05-22T19:27:07.134Z,7.43
2019-05-22T19:29:38.963Z,7.40
2019-05-22T19:32:10.496Z,7.40
2019-05-22T19:34:42.633Z,7.33
2019-05-22T19:37:14.503Z,7.45
2019-05-22T19:39:46.530Z,7.40
2019-05-22T19:42:18.907Z,8.35
2019-05-22T19:44:50.706Z,8.60
2019-05-22T19:47:23.114Z,8.80
2019-05-22T19:49:57.278Z,9.60
2019-05-22T19:52:41.075Z,9.90
2019-05-22T19:55:06.934Z,10.47
2019-05-22T19:57:37.744Z,9.40
2019-05-22T20:00:12.205Z,9.07
2019-05-22T20:02:44.551Z,7.90
2019-05-22T20:05:17.238Z,7.85
2019-05-22T20:07:49.268Z,8.70
2019-05-22T20:10:21.831Z,8.38
2019-05-22T20:12:53.626Z,8.83
2019-05-22T20:15:26.083Z,8.57
2019-05-22T20:17:58.834Z,8.60
2019-05-22T20:20:30.982Z,8.20
2019-05-22T20:23:03.190Z,11.40
2019-05-22T20:25:35.841Z,9.23
2019-05-22T20:28:09.018Z,7.87
2019-05-22T20:30:41.131Z,6.70
2019-05-22T20:33:13.715Z,5.33
2019-05-22T20:35:45.663Z,5.10
2019-05-22T20:38:18.000Z,5.37
2019-05-22T20:40:49.908Z,5.70
2019-05-22T20:43:23.741Z,5.20
2019-05-22T20:45:58.167Z,6.00
2019-05-22T20:48:30.920Z,6.33
2019-05-22T20:51:03.727Z,5.60
2019-05-22T20:53:52.830Z,5.20
2019-05-22T20:56:12.882Z,5.10
2019-05-22T20:58:48.171Z,5.55
2019-05-22T21:01:21.832Z,7.57
2019-05-22T21:03:53.877Z,5.77
2019-05-22T21:06:27.540Z,5.30
2019-05-22T21:09:00.358Z,5.77
2019-05-22T21:11:34.461Z,5.20
2019-05-22T21:14:07.323Z,5.03
2019-05-22T21:16:41.436Z,4.43
2019-05-22T21:19:13.678Z,5.30
2019-05-22T21:21:46.643Z,4.47
2019-05-22T21:24:18.461Z,4.70
2019-05-22T21:26:50.985Z,5.40
2019-05-22T21:29:24.331Z,5.03
2019-05-22T21:31:57.463Z,5.13
2019-05-22T21:34:30.585Z,4.70
2019-05-22T21:37:02.763Z,4.37
2019-05-22T21:39:35.250Z,4.73
2019-05-22T21:42:07.692Z,4.93
2019-05-22T21:44:42.311Z,4.80
2019-05-22T21:47:14.758Z,5.80
2019-05-22T21:49:47.133Z,4.83
2019-05-22T21:52:19.590Z,4.80
2019-05-22T21:54:52.609Z,5.07
2019-05-22T21:57:25.577Z,4.60
2019-05-22T21:59:59.739Z,4.17
2019-05-22T22:02:38.500Z,6.00
2019-05-22T22:05:11.749Z,6.07
2019-05-22T22:07:43.871Z,7.10
2019-05-22T22:10:16.156Z,7.33
2019-05-22T22:12:49.312Z,7.43
2019-05-22T22:15:22.599Z,7.65
2019-05-22T22:17:55.244Z,8.00
2019-05-22T22:20:27.068Z,7.60
2019-05-22T22:22:59.940Z,8.43
2019-05-22T22:25:32.176Z,7.87
2019-05-22T22:28:04.517Z,8.30
2019-05-22T22:30:43.999Z,8.67
2019-05-22T22:33:16.715Z,8.53
2019-05-22T22:35:50.204Z,8.60
2019-05-22T22:38:25.024Z,8.70
2019-05-22T22:40:57.403Z,8.77
2019-05-22T22:43:32.568Z,8.73
2019-05-22T22:46:23.849Z,10.43
2019-05-22T22:48:58.227Z,10.63
2019-05-22T22:51:30.431Z,10.33
2019-05-22T22:54:04.919Z,9.00
2019-05-22T22:56:37.712Z,9.20
2019-05-22T22:59:10.436Z,9.57
2019-05-22T23:01:46.081Z,9.57
2019-05-22T23:04:19.836Z,9.17
2019-05-22T23:06:51.937Z,9.17
2019-05-22T23:09:25.644Z,9.07
2019-05-22T23:11:58.225Z,8.53
2019-05-22T23:14:31.173Z,8.50
2019-05-22T23:17:05.610Z,8.43
2019-05-22T23:19:38.750Z,8.67
2019-05-22T23:22:18.166Z,8.25
2019-05-22T23:24:52.015Z,7.60
2019-05-22T23:27:24.031Z,6.62
2019-05-22T23:29:56.091Z,5.47
2019-05-22T23:32:28.412Z,5.30
2019-05-22T23:35:02.080Z,5.67
2019-05-22T23:37:35.466Z,5.30
2019-05-22T23:40:11.029Z,6.30
2019-05-22T23:42:44.290Z,6.07
2019-05-22T23:45:22.162Z,5.00
2019-05-22T23:48:24.364Z,4.80
2019-05-22T23:50:56.406Z,4.63
2019-05-22T23:53:29.968Z,4.47
2019-05-22T23:56:04.899Z,4.53
2019-05-22T23:58:51.636Z,3.70
